createdAt,value
2019-02-16T00:00:09.527Z,94962.92
2019-02-16T00:02:37.435Z,94963.05
2019-02-16T00:05:05.612Z,94955.53
2019-02-16T00:07:33.539Z,94954.82
2019-02-16T00:10:01.469Z,94950.83
2019-02-16T00:12:29.337Z,94951.66
2019-02-16T00:14:57.223Z,94953.53
2019-02-16T00:17:25.138Z,94957.77
2019-02-16T00:19:52.963Z,94959.17
2019-02-16T00:22:21.061Z,94965.07
2019-02-16T00:24:48.885Z,94962.13
2019-02-16T00:27:16.747Z,94963.66
2019-02-16T00:29:44.628Z,94955.54
2019-02-16T00:32:12.507Z,94956.11
2019-02-16T00:34:40.406Z,94948.81
2019-02-16T00:37:08.351Z,94951.65
2019-02-16T00:39:36.463Z,94950.10
2019-02-16T00:42:04.347Z,94950.82
2019-02-16T00:44:32.323Z,94939.42
2019-02-16T00:47:00.169Z,94950.61
2019-02-16T00:49:28.037Z,94939.53
2019-02-16T00:51:56.178Z,94939.27
2019-02-16T00:54:24.030Z,94938.67
2019-02-16T00:56:51.956Z,94936.09
2019-02-16T00:59:19.832Z,94933.95
2019-02-16T01:01:47.696Z,94933.59
2019-02-16T01:04:15.551Z,94939.34
2019-02-16T01:06:43.427Z,94933.02
2019-02-16T01:09:11.283Z,94934.17
2019-02-16T01:11:39.147Z,94934.53
2019-02-16T01:14:07.123Z,94930.63
2019-02-16T01:16:35.022Z,94934.97
2019-02-16T01:19:02.859Z,94934.39
2019-02-16T01:21:30.717Z,94928.97
2019-02-16T01:23:58.560Z,94930.14
2019-02-16T01:26:26.702Z,94923.80
2019-02-16T01:28:54.597Z,94921.21
2019-02-16T01:31:22.465Z,94924.97
2019-02-16T01:33:50.353Z,94921.66
2019-02-16T01:36:18.319Z,94914.38
2019-02-16T01:38:46.187Z,94912.49
2019-02-16T01:41:14.448Z,94910.00
2019-02-16T01:43:42.263Z,94905.19
2019-02-16T01:46:10.140Z,94902.59
2019-02-16T01:48:38.049Z,94907.66
2019-02-16T01:51:05.885Z,94907.02
2019-02-16T01:53:33.702Z,94903.02
2019-02-16T01:56:01.628Z,94894.24
2019-02-16T01:58:29.473Z,94898.12
2019-02-16T02:00:57.333Z,94894.93
2019-02-16T02:03:25.184Z,94889.40
2019-02-16T02:05:53.010Z,94894.54
2019-02-16T02:08:20.878Z,94891.27
2019-02-16T02:10:48.766Z,94890.44
2019-02-16T02:13:16.620Z,94892.03
2019-02-16T02:15:44.483Z,94888.94
2019-02-16T02:18:12.343Z,94880.33
2019-02-16T02:20:41.169Z,94885.05
2019-02-16T02:23:09.001Z,94879.02
2019-02-16T02:25:36.935Z,94877.16
2019-02-16T02:28:04.797Z,94880.09
2019-02-16T02:30:33.972Z,94878.37
2019-02-16T02:33:02.004Z,94876.70
2019-02-16T02:35:29.850Z,94875.12
2019-02-16T02:37:57.684Z,94876.77
2019-02-16T02:40:25.687Z,94872.23
2019-02-16T02:42:53.613Z,94870.91
2019-02-16T02:45:21.485Z,94878.51
2019-02-16T02:47:49.494Z,94876.23
2019-02-16T02:50:17.301Z,94881.69
2019-02-16T02:52:45.185Z,94883.67
2019-02-16T02:55:13.049Z,94882.75
2019-02-16T02:57:40.902Z,94882.38
2019-02-16T03:00:08.989Z,94882.84
2019-02-16T03:02:36.826Z,94888.48
2019-02-16T03:05:06.210Z,94888.84
2019-02-16T03:07:34.086Z,94886.42
2019-02-16T03:10:02.054Z,94891.17
2019-02-16T03:12:29.968Z,94891.53
2019-02-16T03:14:57.828Z,94883.27
2019-02-16T03:17:25.661Z,94881.87
2019-02-16T03:19:53.527Z,94883.50
2019-02-16T03:22:21.488Z,94878.20
2019-02-16T03:24:49.344Z,94879.70
2019-02-16T03:28:21.417Z,94876.91
2019-02-16T03:31:38.121Z,94869.10
2019-02-16T03:34:20.641Z,94871.89
2019-02-16T03:38:14.084Z,94866.82
2019-02-16T03:40:45.185Z,94869.17
2019-02-16T03:43:13.086Z,94876.12
2019-02-16T03:45:40.936Z,94868.38
2019-02-16T03:48:08.779Z,94865.56
2019-02-16T03:50:36.608Z,94873.41
2019-02-16T03:53:04.462Z,94874.20
2019-02-16T03:55:32.300Z,94878.41
2019-02-16T03:58:00.197Z,94875.12
2019-02-16T04:00:28.039Z,94881.13
2019-02-16T04:02:55.867Z,94886.45
2019-02-16T04:05:23.727Z,94883.88
2019-02-16T04:07:51.627Z,94890.89
2019-02-16T04:10:19.483Z,94885.89
2019-02-16T04:12:47.364Z,94895.13
2019-02-16T04:15:15.283Z,94892.05
2019-02-16T04:17:43.185Z,94895.79
2019-02-16T04:20:11.017Z,94898.37
2019-02-16T04:22:38.905Z,94896.72
2019-02-16T04:25:06.725Z,94899.49
2019-02-16T04:27:34.580Z,94906.73
2019-02-16T04:30:02.554Z,94904.89
2019-02-16T04:32:30.407Z,94904.39
2019-02-16T04:34:58.256Z,94903.16
2019-02-16T04:37:26.172Z,94908.82
2019-02-16T04:39:53.987Z,94907.89
2019-02-16T04:42:22.549Z,94909.55
2019-02-16T04:44:50.410Z,94914.72
2019-02-16T04:47:18.263Z,94912.33
2019-02-16T04:49:46.101Z,94916.29
2019-02-16T04:52:13.945Z,94918.28
2019-02-16T04:54:41.807Z,94921.65
2019-02-16T04:57:09.718Z,94914.47
2019-02-16T04:59:37.577Z,94918.19
2019-02-16T05:02:05.443Z,94925.57
2019-02-16T05:04:33.278Z,94922.43
2019-02-16T05:07:01.144Z,94919.99
2019-02-16T05:09:28.942Z,94920.30
2019-02-16T05:11:56.798Z,94918.14
2019-02-16T05:14:24.666Z,94919.06
2019-02-16T05:16:52.498Z,94917.83
2019-02-16T05:19:20.359Z,94912.84
2019-02-16T05:21:48.224Z,94917.83
2019-02-16T05:24:16.120Z,94910.81
2019-02-16T05:26:43.950Z,94905.77
2019-02-16T05:29:11.851Z,94901.92
2019-02-16T05:31:39.656Z,94909.30
2019-02-16T05:34:07.511Z,94903.58
2019-02-16T05:36:35.369Z,94900.69
2019-02-16T05:39:05.006Z,94907.00
2019-02-16T05:41:32.924Z,94907.73
2019-02-16T05:44:00.794Z,94901.80
2019-02-16T05:46:28.642Z,94903.41
2019-02-16T05:48:56.500Z,94899.17
2019-02-16T05:51:24.348Z,94895.67
2019-02-16T05:53:52.356Z,94895.34
2019-02-16T05:56:20.177Z,94891.38
2019-02-16T05:58:48.150Z,94890.81
2019-02-16T06:01:16.000Z,94888.57
2019-02-16T06:03:43.837Z,94890.23
2019-02-16T06:06:11.718Z,94892.25
2019-02-16T06:08:39.710Z,94892.95
2019-02-16T06:11:07.695Z,94888.11
2019-02-16T06:13:35.609Z,94891.38
2019-02-16T06:16:03.477Z,94891.02
2019-02-16T06:18:31.344Z,94901.64
2019-02-16T06:20:59.436Z,94898.84
2019-02-16T06:23:27.253Z,94904.31
2019-02-16T06:25:55.113Z,94906.89
2019-02-16T06:28:22.988Z,94910.26
2019-02-16T06:30:50.847Z,94911.97
2019-02-16T06:33:18.726Z,94909.95
2019-02-16T06:35:52.251Z,94914.97
2019-02-16T06:38:20.083Z,94917.45
2019-02-16T06:40:48.197Z,94920.91
2019-02-16T06:43:16.320Z,94924.70
2019-02-16T06:45:44.853Z,94930.86
2019-02-16T06:48:12.770Z,94931.78
2019-02-16T06:50:40.636Z,94938.61
2019-02-16T06:53:13.289Z,94940.59
2019-02-16T06:55:43.840Z,94944.83
2019-02-16T06:58:11.654Z,94940.96
2019-02-16T07:00:39.526Z,94936.31
2019-02-16T07:03:07.404Z,94940.45
2019-02-16T07:05:35.273Z,94935.70
2019-02-16T07:08:03.188Z,94935.28
2019-02-16T07:10:31.076Z,94937.59
2019-02-16T07:12:58.905Z,94931.44
2019-02-16T07:15:26.797Z,94936.88
2019-02-16T07:18:01.901Z,94940.38
2019-02-16T07:20:29.758Z,94928.63
2019-02-16T07:22:57.595Z,94938.87
2019-02-16T07:25:25.457Z,94941.62
2019-02-16T07:27:53.299Z,94944.73
2019-02-16T07:30:21.122Z,94945.33
2019-02-16T07:32:48.995Z,94947.02
2019-02-16T07:35:16.861Z,94947.41
2019-02-16T07:37:44.739Z,94943.42
2019-02-16T07:40:13.993Z,94948.42
2019-02-16T07:42:49.405Z,94951.23
2019-02-16T07:45:38.228Z,94950.66
2019-02-16T07:48:24.428Z,94952.31
2019-02-16T07:50:56.911Z,94948.33
2019-02-16T07:53:39.951Z,94945.80
2019-02-16T07:56:14.042Z,94948.67
2019-02-16T07:59:04.533Z,94944.64
2019-02-16T08:01:58.094Z,94944.53
2019-02-16T08:04:44.492Z,94938.59
2019-02-16T08:07:38.047Z,94935.02
2019-02-16T08:10:24.555Z,94930.92
2019-02-16T08:13:17.946Z,94930.92
2019-02-16T08:16:05.371Z,94934.03
2019-02-16T08:18:56.000Z,94931.28
2019-02-16T08:21:58.568Z,94933.59
2019-02-16T08:25:01.279Z,94929.28
2019-02-16T08:27:51.503Z,94930.28
2019-02-16T08:30:50.994Z,94921.91
2019-02-16T08:33:27.417Z,94923.67
2019-02-16T08:36:01.957Z,94922.61
2019-02-16T08:38:58.629Z,94910.06
2019-02-16T08:41:44.649Z,94912.05
2019-02-16T08:44:23.874Z,94902.27
2019-02-16T08:47:17.391Z,94908.53
2019-02-16T08:49:59.542Z,94903.61
2019-02-16T08:52:52.983Z,94903.00
2019-02-16T08:55:58.901Z,94899.20
2019-02-16T08:58:48.789Z,94900.70
2019-02-16T09:01:34.008Z,94901.30
2019-02-16T09:04:17.609Z,94901.41
2019-02-16T09:06:54.063Z,94905.30
2019-02-16T09:09:41.558Z,94904.16
2019-02-16T09:12:32.980Z,94896.34
2019-02-16T09:15:26.895Z,94901.30
2019-02-16T09:18:04.045Z,94900.25
2019-02-16T09:20:44.339Z,94900.95
2019-02-16T09:23:30.615Z,94903.31
2019-02-16T09:26:30.368Z,94901.07
2019-02-16T09:29:05.624Z,94899.70
2019-02-16T09:31:48.181Z,94896.20
2019-02-16T09:34:37.878Z,94900.27
2019-02-16T09:37:23.021Z,94901.27
2019-02-16T09:40:09.049Z,94897.69
2019-02-16T09:42:42.996Z,94895.27
2019-02-16T09:45:36.366Z,94899.68
2019-02-16T09:48:19.602Z,94901.84
2019-02-16T09:50:58.662Z,94899.27
2019-02-16T09:53:58.338Z,94895.13
2019-02-16T09:56:52.031Z,94897.85
2019-02-16T09:59:42.649Z,94897.55
2019-02-16T10:02:21.972Z,94901.66
2019-02-16T10:05:00.744Z,94895.99
2019-02-16T10:07:54.057Z,94907.74
2019-02-16T10:10:41.666Z,94905.48
2019-02-16T10:13:35.528Z,94901.08
2019-02-16T10:16:11.422Z,94903.05
2019-02-16T10:19:07.570Z,94901.55
2019-02-16T10:22:03.804Z,94906.01
2019-02-16T10:25:00.360Z,94903.44
2019-02-16T10:27:42.731Z,94907.98
2019-02-16T10:30:18.582Z,94913.16
2019-02-16T10:32:57.384Z,94912.12
2019-02-16T10:35:49.267Z,94904.02
2019-02-16T10:38:40.201Z,94908.61
2019-02-16T10:41:15.148Z,94908.28
2019-02-16T10:44:01.152Z,94909.37
2019-02-16T10:46:57.938Z,94907.36
2019-02-16T10:49:54.212Z,94907.20
2019-02-16T10:52:40.361Z,94904.13
2019-02-16T10:55:30.646Z,94908.36
2019-02-16T10:58:16.635Z,94902.37
2019-02-16T11:01:19.549Z,94895.97
2019-02-16T11:03:54.636Z,94896.45
2019-02-16T11:06:42.136Z,94900.00
2019-02-16T11:09:35.494Z,94897.49
2019-02-16T11:12:20.075Z,94893.83
2019-02-16T11:15:06.140Z,94891.67
2019-02-16T11:17:53.616Z,94889.30
2019-02-16T11:20:32.245Z,94896.18
2019-02-16T11:23:34.928Z,94896.53
2019-02-16T11:26:22.408Z,94891.23
2019-02-16T11:29:11.114Z,94895.80
2019-02-16T11:32:01.606Z,94887.78
2019-02-16T11:34:40.799Z,94883.41
2019-02-16T11:37:14.115Z,94886.37
2019-02-16T11:39:53.851Z,94896.78
2019-02-16T11:42:36.581Z,94889.43
2019-02-16T11:45:23.081Z,94889.75
2019-02-16T11:48:03.478Z,94882.06
2019-02-16T11:51:06.016Z,94881.95
2019-02-16T11:53:39.373Z,94882.14
2019-02-16T11:56:31.540Z,94871.86
2019-02-16T11:59:17.532Z,94880.01
2019-02-16T12:02:10.192Z,94872.08
2019-02-16T12:05:03.789Z,94869.97
2019-02-16T12:07:46.270Z,94870.05
2019-02-16T12:10:33.701Z,94869.07
2019-02-16T12:13:36.583Z,94863.45
2019-02-16T12:16:27.320Z,94859.90
2019-02-16T12:19:17.619Z,94858.45
2019-02-16T12:21:59.361Z,94857.53
2019-02-16T12:25:04.695Z,94852.20
2019-02-16T12:27:45.332Z,94855.99
2019-02-16T12:30:47.845Z,94850.02
2019-02-16T12:33:34.387Z,94855.52
2019-02-16T12:36:33.773Z,94846.36
2019-02-16T12:39:24.000Z,94839.84
2019-02-16T12:42:01.732Z,94843.70
2019-02-16T12:44:49.215Z,94831.91
2019-02-16T12:47:39.840Z,94831.91
2019-02-16T12:50:27.257Z,94826.58
2019-02-16T12:53:20.767Z,94824.36
2019-02-16T12:56:06.810Z,94823.11
2019-02-16T12:58:41.282Z,94817.22
2019-02-16T13:01:14.654Z,94817.42
2019-02-16T13:04:02.214Z,94813.95
2019-02-16T13:06:49.674Z,94811.30
2019-02-16T13:09:27.464Z,94818.05
2019-02-16T13:12:24.095Z,94807.14
2019-02-16T13:15:14.443Z,94807.64
2019-02-16T13:18:04.771Z,94800.41
2019-02-16T13:20:55.278Z,94803.25
2019-02-16T13:23:40.562Z,94794.41
2019-02-16T13:26:32.544Z,94797.98
2019-02-16T13:29:22.836Z,94791.56
2019-02-16T13:32:13.248Z,94794.72
2019-02-16T13:34:56.375Z,94795.03
2019-02-16T13:37:32.423Z,94796.05
2019-02-16T13:40:38.014Z,94799.81
2019-02-16T13:43:31.373Z,94800.12
2019-02-16T13:46:17.099Z,94790.85
2019-02-16T13:49:04.593Z,94788.31
2019-02-16T13:51:37.623Z,94787.30
2019-02-16T13:54:19.388Z,94787.30
2019-02-16T13:57:00.393Z,94783.73
2019-02-16T13:59:50.454Z,94781.81
2019-02-16T14:02:31.341Z,94781.19
2019-02-16T14:05:07.539Z,94781.06
2019-02-16T14:07:57.726Z,94780.36
2019-02-16T14:10:45.212Z,94776.70
2019-02-16T14:13:35.868Z,94772.63
2019-02-16T14:16:11.736Z,94777.33
2019-02-16T14:18:39.597Z,94775.27
2019-02-16T14:21:07.518Z,94776.28
2019-02-16T14:23:35.394Z,94771.61
2019-02-16T14:26:03.273Z,94772.31
2019-02-16T14:28:31.358Z,94773.75
2019-02-16T14:30:59.333Z,94775.25
2019-02-16T14:33:27.213Z,94769.96
2019-02-16T14:35:55.128Z,94772.20
2019-02-16T14:38:48.433Z,94771.89
2019-02-16T14:41:16.303Z,94769.77
2019-02-16T14:43:44.176Z,94771.68
2019-02-16T14:46:12.028Z,94767.71
2019-02-16T14:48:39.891Z,94765.48
2019-02-16T14:51:07.826Z,94771.47
2019-02-16T14:53:35.771Z,94767.50
2019-02-16T14:56:03.705Z,94771.27
2019-02-16T14:58:31.554Z,94762.32
2019-02-16T15:00:59.410Z,94768.94
2019-02-16T15:03:27.464Z,94762.63
2019-02-16T15:05:55.429Z,94762.11
2019-02-16T15:08:23.327Z,94764.66
2019-02-16T15:10:51.240Z,94767.09
2019-02-16T15:13:19.180Z,94759.97
2019-02-16T15:15:47.086Z,94757.28
2019-02-16T15:18:14.988Z,94759.16
2019-02-16T15:20:42.887Z,94756.86
2019-02-16T15:23:10.778Z,94758.25
2019-02-16T15:25:38.775Z,94750.52
2019-02-16T15:28:06.651Z,94752.31
2019-02-16T15:30:34.565Z,94753.33
2019-02-16T15:33:02.426Z,94756.19
2019-02-16T15:35:30.286Z,94749.27
2019-02-16T15:37:58.143Z,94750.20
2019-02-16T15:40:26.076Z,94759.45
2019-02-16T15:42:53.902Z,94751.48
2019-02-16T15:45:21.839Z,94749.46
2019-02-16T15:47:49.749Z,94750.73
2019-02-16T15:50:17.645Z,94750.90
2019-02-16T15:52:45.538Z,94742.73
2019-02-16T15:55:13.417Z,94745.59
2019-02-16T15:57:41.286Z,94741.67
2019-02-16T16:00:17.408Z,94745.32
2019-02-16T16:02:45.357Z,94738.81
2019-02-16T16:05:13.378Z,94739.75
2019-02-16T16:07:43.525Z,94741.22
2019-02-16T16:10:28.086Z,94737.13
2019-02-16T16:13:09.404Z,94740.77
2019-02-16T16:16:00.139Z,94747.06
2019-02-16T16:18:50.474Z,94740.45
2019-02-16T16:21:36.599Z,94745.45
2019-02-16T16:24:26.011Z,94744.48
2019-02-16T16:27:16.524Z,94752.25
2019-02-16T16:30:19.404Z,94751.52
2019-02-16T16:33:06.922Z,94754.91
2019-02-16T16:36:09.455Z,94753.90
2019-02-16T16:38:46.773Z,94753.66
2019-02-16T16:41:33.239Z,94752.15
2019-02-16T16:44:07.595Z,94754.67
2019-02-16T16:46:55.118Z,94759.27
2019-02-16T16:49:38.920Z,94755.85
2019-02-16T16:52:15.010Z,94756.74
2019-02-16T16:54:51.281Z,94759.88
2019-02-16T16:57:38.858Z,94763.14
2019-02-16T17:00:25.729Z,94758.63
2019-02-16T17:03:28.270Z,94765.56
2019-02-16T17:06:18.568Z,94774.82
2019-02-16T17:09:04.712Z,94779.59
2019-02-16T17:11:58.670Z,94782.23
2019-02-16T17:14:58.142Z,94783.53
2019-02-16T17:17:45.672Z,94786.30
2019-02-16T17:20:24.936Z,94779.81
2019-02-16T17:23:02.666Z,94783.83
2019-02-16T17:25:52.842Z,94788.95
2019-02-16T17:28:42.242Z,94784.08
2019-02-16T17:31:24.404Z,94791.02
2019-02-16T17:34:20.576Z,94790.41
2019-02-16T17:37:05.085Z,94795.95
2019-02-16T17:39:58.815Z,94799.27
2019-02-16T17:42:58.372Z,94801.64
2019-02-16T17:45:44.573Z,94799.70
2019-02-16T17:48:30.777Z,94803.16
2019-02-16T17:51:19.564Z,94802.66
2019-02-16T17:54:08.410Z,94807.56
2019-02-16T17:57:04.071Z,94813.48
2019-02-16T17:59:40.434Z,94813.50
2019-02-16T18:02:34.233Z,94815.77
2019-02-16T18:05:18.133Z,94814.44
2019-02-16T18:08:20.833Z,94817.67
2019-02-16T18:10:59.829Z,94810.45
2019-02-16T18:13:39.503Z,94812.64
2019-02-16T18:16:35.980Z,94810.31
2019-02-16T18:19:26.434Z,94808.94
2019-02-16T18:22:06.232Z,94804.91
2019-02-16T18:25:02.545Z,94815.23
2019-02-16T18:27:40.841Z,94810.63
2019-02-16T18:30:28.331Z,94810.61
2019-02-16T18:33:08.203Z,94808.95
2019-02-16T18:36:02.160Z,94811.84
2019-02-16T18:38:48.047Z,94809.54
2019-02-16T18:41:44.694Z,94808.84
2019-02-16T18:44:41.005Z,94808.77
2019-02-16T18:47:28.848Z,94812.58
2019-02-16T18:50:13.081Z,94809.84
2019-02-16T18:52:59.232Z,94802.61
2019-02-16T18:55:45.586Z,94811.04
2019-02-16T18:58:33.077Z,94804.12
2019-02-16T19:01:19.287Z,94810.86
2019-02-16T19:03:57.130Z,94808.16
2019-02-16T19:06:47.412Z,94806.45
2019-02-16T19:09:34.867Z,94803.13
2019-02-16T19:12:31.280Z,94802.44
2019-02-16T19:15:24.644Z,94806.38
2019-02-16T19:18:04.492Z,94801.75
2019-02-16T19:21:01.310Z,94800.79
2019-02-16T19:23:54.605Z,94802.02
2019-02-16T19:26:51.102Z,94797.80
2019-02-16T19:29:44.589Z,94796.02
2019-02-16T19:32:31.065Z,94791.53
2019-02-16T19:35:17.292Z,94790.11
2019-02-16T19:37:56.871Z,94795.49
2019-02-16T19:40:33.033Z,94788.55
2019-02-16T19:43:23.180Z,94790.87
2019-02-16T19:46:19.434Z,94784.55
2019-02-16T19:49:06.966Z,94784.72
2019-02-16T19:52:06.351Z,94784.17
2019-02-16T19:54:50.369Z,94783.16
2019-02-16T19:57:29.328Z,94782.13
2019-02-16T20:00:16.817Z,94779.69
2019-02-16T20:03:04.277Z,94773.58
2019-02-16T20:06:01.263Z,94779.48
2019-02-16T20:08:44.076Z,94778.44
2019-02-16T20:11:30.296Z,94776.84
2019-02-16T20:14:18.296Z,94774.39
2019-02-16T20:17:18.155Z,94778.67
2019-02-16T20:20:23.763Z,94783.73
2019-02-16T20:23:17.233Z,94785.57
2019-02-16T20:26:03.420Z,94789.56
2019-02-16T20:29:06.056Z,94782.11
2019-02-16T20:31:59.914Z,94792.63
2019-02-16T20:34:38.215Z,94786.97
2019-02-16T20:37:31.829Z,94788.41
2019-02-16T20:40:20.831Z,94784.58
2019-02-16T20:43:20.376Z,94785.95
2019-02-16T20:46:07.862Z,94783.00
2019-02-16T20:48:48.598Z,94789.16
2019-02-16T20:51:27.634Z,94784.05
2019-02-16T20:54:15.135Z,94788.54
2019-02-16T20:56:59.051Z,94783.53
2019-02-16T20:59:49.795Z,94784.59
2019-02-16T21:02:46.313Z,94785.80
2019-02-16T21:05:45.663Z,94782.44
2019-02-16T21:08:22.233Z,94784.81
2019-02-16T21:11:06.840Z,94781.73
2019-02-16T21:13:57.368Z,94777.14
2019-02-16T21:16:47.508Z,94775.91
2019-02-16T21:19:40.872Z,94771.39
2019-02-16T21:22:37.539Z,94770.70
2019-02-16T21:25:14.897Z,94765.61
2019-02-16T21:27:57.753Z,94773.94
2019-02-16T21:30:34.553Z,94768.47
2019-02-16T21:33:36.371Z,94766.85
2019-02-16T21:36:13.746Z,94771.03
2019-02-16T21:39:02.755Z,94763.94
2019-02-16T21:41:42.867Z,94765.94
2019-02-16T21:44:30.322Z,94760.74
2019-02-16T21:47:26.658Z,94762.89
2019-02-16T21:50:26.206Z,94764.61
2019-02-16T21:53:21.662Z,94761.81
2019-02-16T21:56:07.993Z,94764.11
2019-02-16T21:58:55.623Z,94764.23
2019-02-16T22:01:58.252Z,94755.97
2019-02-16T22:04:35.736Z,94754.45
2019-02-16T22:07:11.259Z,94749.93
2019-02-16T22:09:58.081Z,94749.93
2019-02-16T22:12:48.362Z,94747.16
2019-02-16T22:15:16.247Z,94741.94
2019-02-16T22:17:44.128Z,94740.84
2019-02-16T22:20:12.033Z,94743.80
2019-02-16T22:22:39.928Z,94747.08
2019-02-16T22:25:07.914Z,94747.66
2019-02-16T22:27:35.806Z,94746.91
2019-02-16T22:30:04.265Z,94747.34
2019-02-16T22:32:32.139Z,94749.59
2019-02-16T22:35:00.051Z,94750.27
2019-02-16T22:37:28.016Z,94746.84
2019-02-16T22:39:55.913Z,94747.70
2019-02-16T22:42:23.888Z,94746.80
2019-02-16T22:44:51.735Z,94747.03
2019-02-16T22:47:19.663Z,94746.88
2019-02-16T22:49:47.504Z,94750.09
2019-02-16T22:52:15.352Z,94747.81
2019-02-16T22:54:43.301Z,94750.31
2019-02-16T22:57:11.185Z,94749.69
2019-02-16T22:59:39.046Z,94745.62
2019-02-16T23:02:08.669Z,94745.01
2019-02-16T23:04:36.674Z,94757.38
2019-02-16T23:07:04.691Z,94754.59
2019-02-16T23:09:32.613Z,94752.84
2019-02-16T23:12:00.912Z,94753.14
2019-02-16T23:14:28.803Z,94753.55
2019-02-16T23:16:56.933Z,94755.73
2019-02-16T23:19:24.814Z,94749.95
2019-02-16T23:21:52.727Z,94742.89
2019-02-16T23:24:20.620Z,94748.57
2019-02-16T23:26:48.500Z,94745.03
2019-02-16T23:29:16.378Z,94750.45
2019-02-16T23:31:44.253Z,94741.78
2019-02-16T23:34:12.128Z,94742.72
2019-02-16T23:36:40.163Z,94745.31
2019-02-16T23:39:08.968Z,94741.22
2019-02-16T23:41:36.831Z,94742.89
2019-02-16T23:44:05.056Z,94740.75
2019-02-16T23:46:32.978Z,94737.76
2019-02-16T23:49:00.857Z,94736.37
2019-02-16T23:51:28.714Z,94738.70
2019-02-16T23:53:56.960Z,94734.91
2019-02-16T23:56:24.877Z,94739.57
2019-02-16T23:58:52.823Z,94738.79
